Viadutos, Brazil
Current Conditions -  °F | °C
As of 8:10 PM on Saturday 22 Nov 2014 (Local Time) from SBCH Reporting Station
Few Clouds Few Clouds  
Wind Chill: 75°   Ceiling: Unl
Heat Index: 75°   Visibility: 6mi
Dew Point: 52°   Wind: 7mph
Humidity: 44%   Direction: 320°NW
Pressure: 29.91"   Gusts: NA
Location:  27.57°S, 52.02°W
Report Text: SBCH 222210Z 32006KT 9999 FEW040 24/11 Q1013
Loading
Personal Weather Stations






























Interactive Weather Map New forecast layout! Learn more

10-Day Weather Forecast

Advertisements
Track Severe Weather on mobile